Time;durP1;ratioP1;P1;durP2;ratioP2;P2;SDS_P1;SDS_P2;PMS_P1;PMS_P2;Temp;Humidity;BMP_temperature;BMP_pressure;BME280_temperature;BME280_humidity;BME280_pressure;Samples;Min_cycle;Max_cycle;Signal;HPM_P1;HPM_P2
2024/02/25 00:00:20;;;;;;;39.50;22.60;;;8.10;99.90;;;;;;4160880;28;20080;-56
2024/02/25 00:02:21;;;;;;;45.73;26.20;;;8.00;99.90;;;;;;4162667;28;20026;-58
2024/02/25 00:04:23;;;;;;;44.47;24.60;;;8.00;99.90;;;;;;4161566;28;20025;-55
2024/02/25 00:06:24;;;;;;;44.87;26.13;;;8.00;99.90;;;;;;4161530;28;20083;-58
2024/02/25 00:08:25;;;;;;;44.80;26.03;;;8.00;99.90;;;;;;4160930;28;20033;-56
2024/02/25 00:10:26;;;;;;;39.23;25.43;;;7.90;99.90;;;;;;4161901;28;20359;-57
2024/02/25 00:12:28;;;;;;;44.50;26.37;;;7.90;99.90;;;;;;4161142;28;20049;-56
2024/02/25 00:14:29;;;;;;;52.83;28.83;;;7.80;99.90;;;;;;4161289;28;20037;-59
2024/02/25 00:16:31;;;;;;;51.30;28.27;;;7.80;99.90;;;;;;4161503;28;20037;-58
2024/02/25 00:18:32;;;;;;;45.07;27.23;;;7.70;99.90;;;;;;4161280;28;20107;-58
2024/02/25 00:20:34;;;;;;;47.13;25.87;;;7.80;99.90;;;;;;4162342;28;20539;-57
2024/02/25 00:22:36;;;;;;;44.57;27.10;;;7.70;99.90;;;;;;4161218;28;20428;-58
2024/02/25 00:24:37;;;;;;;44.10;26.33;;;7.70;99.90;;;;;;4161585;28;20037;-60
2024/02/25 00:26:38;;;;;;;42.57;24.17;;;7.60;99.90;;;;;;4160939;28;20114;-58
2024/02/25 00:28:40;;;;;;;40.17;23.03;;;7.60;99.90;;;;;;4161255;28;20115;-57
2024/02/25 00:30:41;;;;;;;37.70;22.50;;;7.70;99.90;;;;;;4161028;28;20030;-55
2024/02/25 00:32:42;;;;;;;34.90;20.70;;;7.70;99.90;;;;;;4162045;28;20111;-56
2024/02/25 00:34:43;;;;;;;39.13;23.43;;;7.80;99.90;;;;;;4160967;28;20465;-58
2024/02/25 00:36:46;;;;;;;42.70;24.50;;;7.80;99.90;;;;;;4162050;28;21001;-57
2024/02/25 00:38:47;;;;;;;40.97;21.73;;;7.80;99.90;;;;;;4160295;28;20053;-58
2024/02/25 00:40:49;;;;;;;27.57;16.03;;;7.90;99.90;;;;;;4161214;28;20053;-56
2024/02/25 00:42:51;;;;;;;35.20;18.60;;;7.90;99.90;;;;;;4160465;28;20496;-55
2024/02/25 00:44:53;;;;;;;20.80;12.23;;;8.10;99.90;;;;;;4143499;28;20042;-58
2024/02/25 00:46:54;;;;;;;19.20;11.30;;;8.20;99.90;;;;;;4161267;28;20045;-57
2024/02/25 00:48:55;;;;;;;17.50;10.93;;;8.30;99.90;;;;;;4160063;28;20042;-58
2024/02/25 00:50:56;;;;;;;14.33;9.57;;;8.30;99.90;;;;;;4161786;28;20555;-59
2024/02/25 00:52:58;;;;;;;18.20;11.10;;;8.40;99.90;;;;;;4160224;28;20459;-59
2024/02/25 00:55:00;;;;;;;18.43;9.37;;;8.50;99.90;;;;;;4161550;28;20037;-60
2024/02/25 00:57:01;;;;;;;14.33;9.20;;;8.50;99.90;;;;;;4160115;28;20088;-58
2024/02/25 00:59:02;;;;;;;14.43;9.80;;;8.70;99.90;;;;;;4161546;28;20382;-61
2024/02/25 01:01:04;;;;;;;11.17;7.07;;;8.80;99.90;;;;;;4160848;28;20474;-59
2024/02/25 01:03:06;;;;;;;12.00;7.20;;;8.80;99.90;;;;;;4161237;28;20432;-59
2024/02/25 01:05:07;;;;;;;24.80;13.90;;;8.80;99.90;;;;;;4160345;28;20030;-52
2024/02/25 01:07:08;;;;;;;18.67;11.00;;;8.80;99.90;;;;;;4160942;28;20049;-56
2024/02/25 01:09:10;;;;;;;26.50;15.40;;;8.80;99.90;;;;;;4160754;28;20025;-62
2024/02/25 01:11:11;;;;;;;26.83;16.47;;;8.70;99.90;;;;;;4160612;28;20091;-58
2024/02/25 01:13:14;;;;;;;26.40;15.77;;;8.60;99.90;;;;;;4160908;28;20160;-60
2024/02/25 01:15:15;;;;;;;26.93;15.53;;;8.50;99.90;;;;;;4160461;28;20046;-57
2024/02/25 01:17:17;;;;;;;21.60;12.60;;;8.30;99.90;;;;;;4160971;28;20037;-58
2024/02/25 01:19:20;;;;;;;15.00;9.73;;;8.30;99.90;;;;;;4161278;28;20034;-60
2024/02/25 01:21:21;;;;;;;20.07;11.53;;;8.30;99.90;;;;;;4164667;28;20021;-58
2024/02/25 01:23:23;;;;;;;19.00;11.60;;;8.40;99.90;;;;;;4164078;28;20030;-55
2024/02/25 01:25:26;;;;;;;19.30;12.93;;;8.40;99.90;;;;;;4164514;28;20425;-59
2024/02/25 01:27:27;;;;;;;35.57;19.00;;;8.40;99.90;;;;;;4163536;28;20041;-52
2024/02/25 01:29:28;;;;;;;24.63;14.57;;;8.40;99.90;;;;;;4164847;28;20445;-56
2024/02/25 01:31:29;;;;;;;26.27;14.50;;;8.40;99.90;;;;;;4163833;28;20428;-57
2024/02/25 01:33:31;;;;;;;16.17;10.37;;;8.40;99.90;;;;;;4163770;28;20111;-57
2024/02/25 01:35:32;;;;;;;16.70;10.40;;;8.40;99.90;;;;;;4162814;28;20083;-57
2024/02/25 01:37:33;;;;;;;13.07;7.40;;;8.50;99.90;;;;;;4164814;28;20087;-52
2024/02/25 01:39:34;;;;;;;15.33;9.27;;;8.50;99.90;;;;;;4162778;28;20034;-57
2024/02/25 01:41:36;;;;;;;8.30;5.13;;;8.60;99.90;;;;;;4146494;28;20046;-55
2024/02/25 01:43:40;;;;;;;10.67;6.77;;;8.60;99.90;;;;;;4163886;28;20029;-60
2024/02/25 01:45:42;;;;;;;12.17;7.67;;;8.60;99.90;;;;;;4163758;28;20029;-59
2024/02/25 01:47:43;;;;;;;11.30;5.33;;;8.60;99.90;;;;;;4163474;28;20103;-58
2024/02/25 01:49:44;;;;;;;10.07;5.97;;;8.70;99.90;;;;;;4163992;28;20083;-58
2024/02/25 01:51:46;;;;;;;11.73;6.67;;;8.70;99.90;;;;;;4163880;28;20099;-58
2024/02/25 01:53:49;;;;;;;11.63;6.57;;;8.80;99.90;;;;;;4163418;28;20029;-58
2024/02/25 01:55:52;;;;;;;13.30;7.00;;;8.80;99.90;;;;;;4164192;28;20033;-58
2024/02/25 01:57:54;;;;;;;15.83;7.93;;;8.80;99.90;;;;;;4162143;28;20049;-55
2024/02/25 01:59:56;;;;;;;10.93;5.93;;;8.80;99.90;;;;;;4164253;28;20103;-57
2024/02/25 02:01:57;;;;;;;12.73;8.07;;;8.80;99.90;;;;;;4162843;28;20037;-58
2024/02/25 02:03:58;;;;;;;13.40;7.70;;;8.80;99.90;;;;;;4164537;28;20029;-59
2024/02/25 02:06:00;;;;;;;15.23;8.83;;;8.80;99.90;;;;;;4163198;28;20477;-58
2024/02/25 02:08:03;;;;;;;11.60;7.37;;;8.70;99.90;;;;;;4164219;28;20045;-54
2024/02/25 02:10:10;;;;;;;13.83;8.57;;;8.70;99.90;;;;;;4162171;28;20103;-57
2024/02/25 02:12:11;;;;;;;12.37;8.23;;;8.60;99.90;;;;;;4163970;28;20049;-55
2024/02/25 02:14:13;;;;;;;12.23;7.83;;;8.60;99.90;;;;;;4163226;28;20091;-55
2024/02/25 02:16:15;;;;;;;11.30;7.20;;;8.60;99.90;;;;;;4163751;28;20083;-58
2024/02/25 02:18:16;;;;;;;12.47;8.17;;;8.60;99.90;;;;;;4163813;28;20111;-55
2024/02/25 02:20:20;;;;;;;12.33;7.37;;;8.60;99.90;;;;;;4163762;28;20083;-57
2024/02/25 02:22:23;;;;;;;13.80;8.27;;;8.70;99.90;;;;;;4163109;28;20084;-54
2024/02/25 02:24:24;;;;;;;15.30;7.80;;;8.60;99.90;;;;;;4163507;28;20536;-60
2024/02/25 02:26:25;;;;;;;11.67;7.00;;;8.60;99.90;;;;;;4162610;28;20053;-57
2024/02/25 02:28:27;;;;;;;12.37;7.37;;;8.60;99.90;;;;;;4161794;28;20071;-52
2024/02/25 02:30:28;;;;;;;9.80;6.97;;;8.60;99.90;;;;;;4162519;28;20034;-58
2024/02/25 02:32:29;;;;;;;11.03;6.97;;;8.60;99.90;;;;;;4162737;28;20084;-54
2024/02/25 02:34:30;;;;;;;9.43;6.80;;;8.60;99.90;;;;;;4163509;28;20041;-59
2024/02/25 02:36:32;;;;;;;8.77;6.30;;;8.60;99.90;;;;;;4162793;28;20079;-53
2024/02/25 02:38:33;;;;;;;10.07;6.67;;;8.70;99.90;;;;;;4164005;28;20075;-57
2024/02/25 02:40:34;;;;;;;8.30;5.77;;;8.70;99.90;;;;;;4162553;28;20489;-57
2024/02/25 02:42:36;;;;;;;12.87;7.27;;;8.70;99.90;;;;;;4164044;28;20160;-57
2024/02/25 02:44:37;;;;;;;8.40;5.93;;;8.70;99.90;;;;;;4162548;28;20029;-56
2024/02/25 02:46:40;;;;;;;10.63;5.80;;;8.70;99.90;;;;;;4164102;28;20057;-58
2024/02/25 02:48:41;;;;;;;8.73;5.80;;;8.70;99.90;;;;;;4161842;28;20091;-58
2024/02/25 02:50:42;;;;;;;8.60;5.33;;;8.70;99.90;;;;;;4163468;28;20033;-57
2024/02/25 02:52:43;;;;;;;10.60;5.67;;;8.70;99.90;;;;;;4162919;28;20037;-59
2024/02/25 02:54:45;;;;;;;11.00;6.30;;;8.80;99.90;;;;;;4162741;28;20091;-58
2024/02/25 02:56:46;;;;;;;9.97;6.13;;;8.80;99.90;;;;;;4163216;28;20071;-56
2024/02/25 02:58:49;;;;;;;9.50;6.77;;;8.80;99.90;;;;;;4162390;28;20152;-56
2024/02/25 03:00:50;;;;;;;11.77;6.33;;;8.80;99.90;;;;;;4163392;28;20103;-57
2024/02/25 03:02:52;;;;;;;8.50;6.30;;;8.80;99.90;;;;;;4161517;28;20077;-56
2024/02/25 03:04:53;;;;;;;15.50;8.30;;;8.80;99.90;;;;;;4163675;28;20437;-51
2024/02/25 03:06:55;;;;;;;12.97;8.37;;;8.80;99.90;;;;;;4161796;28;20042;-58
2024/02/25 03:08:57;;;;;;;12.40;8.67;;;8.80;99.90;;;;;;4162820;28;20045;-56
2024/02/25 03:10:58;;;;;;;12.73;8.53;;;8.80;99.90;;;;;;4162265;28;20021;-56
2024/02/25 03:12:59;;;;;;;15.70;8.43;;;8.70;99.90;;;;;;4162934;28;20045;-57
2024/02/25 03:15:00;;;;;;;10.40;7.47;;;8.70;99.90;;;;;;4161853;28;20029;-60
2024/02/25 03:17:02;;;;;;;13.33;7.77;;;8.80;99.90;;;;;;4163021;28;20029;-60
2024/02/25 03:19:03;;;;;;;13.77;8.07;;;8.80;99.90;;;;;;4162351;28;20022;-56
2024/02/25 03:21:04;;;;;;;12.97;8.30;;;8.70;99.90;;;;;;4162469;28;20045;-61
2024/02/25 03:23:05;;;;;;;14.07;8.50;;;8.70;99.90;;;;;;4162496;28;20035;-58
2024/02/25 03:25:11;;;;;;;14.50;8.57;;;8.70;99.90;;;;;;4161898;28;20068;-56
2024/02/25 03:27:12;;;;;;;13.83;8.77;;;8.70;99.90;;;;;;4160042;28;20111;-57
2024/02/25 03:29:14;;;;;;;11.23;7.77;;;8.70;99.90;;;;;;4162026;28;20594;-57
2024/02/25 03:31:15;;;;;;;14.17;8.20;;;8.70;99.90;;;;;;4161958;28;20362;-58
2024/02/25 03:33:16;;;;;;;10.47;7.63;;;8.70;99.90;;;;;;4160780;28;20054;-58
2024/02/25 03:35:17;;;;;;;10.90;7.63;;;8.80;99.90;;;;;;4162199;28;20029;-56
2024/02/25 03:37:19;;;;;;;11.77;7.97;;;8.70;99.90;;;;;;4159988;28;20045;-60
2024/02/25 03:39:20;;;;;;;12.27;7.80;;;8.70;99.90;;;;;;4162789;28;20025;-59
2024/02/25 03:41:21;;;;;;;11.57;7.87;;;8.80;99.90;;;;;;4160629;28;20083;-59
2024/02/25 03:43:23;;;;;;;13.10;8.30;;;8.80;99.90;;;;;;4162198;28;20079;-58
2024/02/25 03:45:24;;;;;;;17.43;10.07;;;8.80;99.90;;;;;;4160216;28;20037;-54
2024/02/25 03:47:25;;;;;;;12.30;8.33;;;8.80;99.90;;;;;;4162937;28;20087;-58
2024/02/25 03:49:26;;;;;;;15.83;8.77;;;8.70;99.90;;;;;;4160047;28;20037;-59
2024/02/25 03:51:28;;;;;;;13.77;9.03;;;8.70;99.90;;;;;;4161820;28;20056;-60
2024/02/25 03:53:29;;;;;;;13.60;8.50;;;8.70;99.90;;;;;;4160823;28;20735;-55
2024/02/25 03:55:31;;;;;;;13.13;7.63;;;8.70;99.90;;;;;;4161713;28;20049;-61
2024/02/25 03:57:33;;;;;;;12.10;7.90;;;8.70;99.90;;;;;;4160148;28;20075;-55
2024/02/25 03:59:34;;;;;;;13.07;8.47;;;8.60;99.90;;;;;;4161995;28;20033;-60
2024/02/25 04:01:35;;;;;;;12.87;8.63;;;8.70;99.90;;;;;;4160907;28;20448;-57
2024/02/25 04:03:37;;;;;;;12.47;7.67;;;8.70;99.90;;;;;;4159854;28;20096;-59
2024/02/25 04:05:38;;;;;;;13.73;8.03;;;8.70;99.90;;;;;;4161058;28;20050;-60
2024/02/25 04:07:41;;;;;;;13.23;7.20;;;8.70;99.90;;;;;;4160841;28;20087;-58
2024/02/25 04:09:43;;;;;;;14.37;8.83;;;8.70;99.90;;;;;;4162468;28;20033;-57
2024/02/25 04:11:44;;;;;;;11.30;7.70;;;8.70;99.90;;;;;;4160152;28;20022;-57
2024/02/25 04:13:46;;;;;;;14.67;8.53;;;8.70;99.90;;;;;;4162223;28;20543;-58
2024/02/25 04:15:47;;;;;;;18.33;10.53;;;8.70;99.90;;;;;;4161393;28;20060;-60
2024/02/25 04:17:48;;;;;;;22.77;13.90;;;8.70;99.90;;;;;;4161955;28;20107;-60
2024/02/25 04:19:52;;;;;;;14.27;8.80;;;8.70;99.90;;;;;;4161339;28;20430;-58
2024/02/25 04:21:53;;;;;;;27.53;14.00;;;8.70;99.90;;;;;;4161327;28;20088;-55
2024/02/25 04:23:54;;;;;;;18.00;11.47;;;8.70;99.90;;;;;;4160000;28;20045;-58
2024/02/25 04:25:55;;;;;;;13.43;8.93;;;8.80;99.90;;;;;;4160692;28;20100;-53
2024/02/25 04:27:57;;;;;;;16.10;9.37;;;8.70;99.90;;;;;;4160607;28;20049;-57
2024/02/25 04:29:58;;;;;;;16.77;10.67;;;8.70;99.90;;;;;;4160179;28;20488;-62
2024/02/25 04:31:59;;;;;;;16.73;10.57;;;8.60;99.90;;;;;;4159977;28;20041;-58
2024/02/25 04:34:00;;;;;;;18.67;10.43;;;8.60;99.90;;;;;;4159823;28;20477;-61
2024/02/25 04:36:02;;;;;;;17.60;11.33;;;8.50;99.90;;;;;;4160305;28;20041;-59
2024/02/25 04:38:05;;;;;;;15.50;9.80;;;8.50;99.90;;;;;;4160328;28;20091;-57
2024/02/25 04:40:08;;;;;;;14.93;9.97;;;8.50;99.90;;;;;;4161276;28;20068;-58
2024/02/25 04:42:10;;;;;;;15.20;10.07;;;8.40;99.90;;;;;;4159821;28;20045;-58
2024/02/25 04:44:11;;;;;;;19.10;10.57;;;8.30;99.90;;;;;;4162126;28;20080;-55
2024/02/25 04:46:12;;;;;;;19.20;10.90;;;8.30;99.90;;;;;;4160926;28;20060;-57
2024/02/25 04:48:13;;;;;;;13.90;10.70;;;8.30;99.90;;;;;;4161446;28;20034;-60
2024/02/25 04:50:14;;;;;;;19.87;10.80;;;8.30;99.90;;;;;;4160112;28;20050;-56
2024/02/25 04:52:16;;;;;;;15.37;9.73;;;8.30;99.90;;;;;;4161999;28;20488;-57
2024/02/25 04:54:17;;;;;;;19.33;12.27;;;8.30;99.90;;;;;;4160717;28;20049;-59
2024/02/25 04:56:19;;;;;;;23.07;14.13;;;8.20;99.90;;;;;;4160690;28;20444;-58
2024/02/25 04:58:20;;;;;;;22.77;14.67;;;8.20;99.90;;;;;;4159670;28;20033;-59
2024/02/25 05:00:21;;;;;;;23.07;13.80;;;8.20;99.90;;;;;;4160789;28;20087;-56
2024/02/25 05:02:24;;;;;;;20.87;12.47;;;8.20;99.90;;;;;;4159787;28;20577;-58
2024/02/25 05:04:25;;;;;;;17.70;11.13;;;8.10;99.90;;;;;;4159855;28;20041;-60
2024/02/25 05:06:26;;;;;;;14.23;9.93;;;8.10;99.90;;;;;;4161056;28;20382;-58
2024/02/25 05:08:27;;;;;;;14.20;10.27;;;8.10;99.90;;;;;;4159794;28;20398;-59
2024/02/25 05:10:28;;;;;;;15.90;10.70;;;8.10;99.90;;;;;;4160885;28;20076;-58
2024/02/25 05:12:30;;;;;;;19.60;11.53;;;8.20;99.90;;;;;;4159097;28;20049;-60
2024/02/25 05:14:31;;;;;;;16.37;10.80;;;8.20;99.90;;;;;;4160830;28;20053;-58
2024/02/25 05:16:32;;;;;;;16.93;10.13;;;8.20;99.90;;;;;;4160658;28;20048;-57
2024/02/25 05:18:34;;;;;;;17.97;10.80;;;8.20;99.90;;;;;;4160688;28;20037;-58
2024/02/25 05:20:35;;;;;;;14.77;9.07;;;8.20;99.90;;;;;;4160371;28;20025;-57
2024/02/25 05:22:36;;;;;;;18.20;11.00;;;8.20;99.90;;;;;;4161389;28;20041;-61
2024/02/25 05:24:39;;;;;;;24.10;13.43;;;8.30;99.90;;;;;;4159367;28;20038;-61
2024/02/25 05:26:41;;;;;;;20.67;13.43;;;8.20;99.90;;;;;;4145327;28;20112;-60
2024/02/25 05:28:42;;;;;;;22.27;13.17;;;8.20;99.90;;;;;;4144468;28;20084;-58
2024/02/25 05:30:43;;;;;;;21.53;13.03;;;8.20;99.90;;;;;;4153483;28;20034;-60
2024/02/25 05:32:44;;;;;;;20.23;11.67;;;8.20;99.90;;;;;;4159772;28;20045;-63
2024/02/25 05:34:46;;;;;;;18.40;10.87;;;8.20;99.90;;;;;;4161173;28;20044;-60
2024/02/25 05:36:47;;;;;;;19.43;12.40;;;8.20;99.90;;;;;;4160443;28;20037;-57
2024/02/25 05:38:48;;;;;;;18.67;12.43;;;8.20;99.90;;;;;;4160103;28;20037;-59
2024/02/25 05:40:50;;;;;;;19.70;12.60;;;8.20;99.90;;;;;;4160424;28;20325;-58
2024/02/25 05:42:51;;;;;;;21.57;12.40;;;8.20;99.90;;;;;;4159971;28;20532;-54
2024/02/25 05:44:53;;;;;;;20.20;11.93;;;8.20;99.90;;;;;;4160489;28;20038;-56
2024/02/25 05:46:55;;;;;;;16.37;10.73;;;8.20;99.90;;;;;;4159021;28;20049;-56
2024/02/25 05:48:56;;;;;;;16.70;10.53;;;8.20;99.90;;;;;;4161233;28;20088;-57
2024/02/25 05:50:57;;;;;;;17.83;11.10;;;8.30;99.90;;;;;;4159677;28;20646;-57
2024/02/25 05:52:58;;;;;;;16.10;10.03;;;8.30;99.90;;;;;;4160939;28;20037;-56
2024/02/25 05:55:00;;;;;;;16.37;11.10;;;8.30;99.90;;;;;;4159388;28;20459;-59
2024/02/25 05:57:01;;;;;;;18.90;11.77;;;8.40;99.90;;;;;;4161634;28;20424;-61
2024/02/25 05:59:02;;;;;;;16.70;11.00;;;8.40;99.90;;;;;;4160112;28;20033;-59
2024/02/25 06:01:04;;;;;;;16.83;9.50;;;8.50;99.90;;;;;;4160325;28;20037;-60
2024/02/25 06:03:05;;;;;;;17.67;10.70;;;8.60;99.90;;;;;;4159420;28;20041;-59
2024/02/25 06:05:12;;;;;;;18.30;11.07;;;8.60;99.90;;;;;;4161226;28;20087;-61
2024/02/25 06:07:13;;;;;;;16.80;11.47;;;8.60;99.90;;;;;;4154953;28;20092;-51
2024/02/25 06:09:15;;;;;;;19.07;12.37;;;8.70;99.90;;;;;;4161279;28;20100;-56
2024/02/25 06:11:17;;;;;;;19.40;12.37;;;8.70;99.90;;;;;;4163069;28;20071;-60
2024/02/25 06:13:18;;;;;;;19.87;12.23;;;8.80;99.90;;;;;;4162772;28;20038;-59
2024/02/25 06:15:19;;;;;;;18.17;11.70;;;8.80;99.90;;;;;;4164233;28;20025;-56
2024/02/25 06:17:21;;;;;;;22.00;13.87;;;8.80;99.90;;;;;;4163152;28;20076;-56
2024/02/25 06:19:22;;;;;;;24.77;14.53;;;8.90;99.90;;;;;;4163797;28;20083;-55
2024/02/25 06:21:24;;;;;;;24.60;15.80;;;8.90;99.90;;;;;;4161989;28;20045;-55
2024/02/25 06:23:25;;;;;;;23.27;15.73;;;8.90;99.90;;;;;;4164157;28;20030;-55
2024/02/25 06:25:27;;;;;;;20.67;13.80;;;8.90;99.90;;;;;;4162127;28;20103;-55
2024/02/25 06:27:28;;;;;;;21.73;14.97;;;9.00;99.90;;;;;;4161953;28;20080;-56
2024/02/25 06:29:29;;;;;;;22.87;14.17;;;9.00;99.90;;;;;;4162246;28;20483;-58
2024/02/25 06:31:34;;;;;;;23.17;13.93;;;9.00;99.90;;;;;;4164104;28;20037;-56
2024/02/25 06:33:35;;;;;;;22.07;13.47;;;9.10;99.90;;;;;;4162381;28;20079;-54
2024/02/25 06:35:36;;;;;;;23.80;13.90;;;9.10;99.90;;;;;;4162865;28;20079;-61
2024/02/25 06:37:37;;;;;;;22.83;13.80;;;9.10;99.90;;;;;;4161970;28;20029;-62
2024/02/25 06:39:39;;;;;;;22.87;13.07;;;9.20;99.90;;;;;;4162942;28;20496;-59
2024/02/25 06:41:40;;;;;;;22.77;14.57;;;9.20;99.90;;;;;;4162897;28;20083;-60
2024/02/25 06:43:41;;;;;;;22.43;13.77;;;9.20;99.90;;;;;;4162833;28;20103;-59
2024/02/25 06:45:43;;;;;;;21.20;12.87;;;9.20;99.90;;;;;;4163700;28;20543;-52
2024/02/25 06:47:46;;;;;;;21.40;12.80;;;9.30;99.90;;;;;;4162398;28;20095;-60
2024/02/25 06:49:48;;;;;;;26.47;13.53;;;9.40;99.90;;;;;;4163142;28;20456;-63
2024/02/25 06:51:49;;;;;;;34.23;15.33;;;9.40;99.90;;;;;;4162516;28;20469;-60
2024/02/25 06:53:50;;;;;;;26.27;15.87;;;9.40;99.90;;;;;;4162857;28;20057;-59
2024/02/25 06:55:51;;;;;;;20.67;12.30;;;9.40;99.90;;;;;;4161753;28;20029;-60
2024/02/25 06:57:53;;;;;;;27.80;19.10;;;9.40;99.90;;;;;;4163455;28;20029;-60
2024/02/25 06:59:55;;;;;;;25.23;15.97;;;9.20;99.90;;;;;;4161656;28;20049;-60
2024/02/25 07:01:56;;;;;;;18.87;11.70;;;9.10;99.90;;;;;;4161762;28;20026;-60
2024/02/25 07:03:57;;;;;;;19.47;12.90;;;9.10;99.90;;;;;;4162241;28;20489;-58
2024/02/25 07:05:58;;;;;;;23.27;14.00;;;9.10;99.90;;;;;;4163172;28;20088;-62
2024/02/25 07:08:00;;;;;;;19.63;14.27;;;9.00;99.90;;;;;;4156528;28;20048;-59
2024/02/25 07:10:01;;;;;;;20.67;15.07;;;9.00;99.90;;;;;;4162761;28;20748;-66
2024/02/25 07:12:02;;;;;;;20.07;14.07;;;8.90;99.90;;;;;;4161753;28;20084;-59
2024/02/25 07:14:03;;;;;;;20.10;13.50;;;8.90;99.90;;;;;;4161459;28;20474;-60
2024/02/25 07:16:05;;;;;;;19.17;13.77;;;8.90;99.90;;;;;;4160707;28;20056;-57
2024/02/25 07:18:06;;;;;;;19.80;14.40;;;9.00;99.90;;;;;;4161927;28;20424;-59
2024/02/25 07:20:08;;;;;;;19.30;13.37;;;9.20;99.90;;;;;;4162545;28;20079;-57
2024/02/25 07:22:09;;;;;;;23.83;14.57;;;9.30;99.90;;;;;;4160992;28;20500;-61
2024/02/25 07:24:10;;;;;;;20.03;12.90;;;9.50;99.90;;;;;;4162461;28;20042;-62
2024/02/25 07:26:13;;;;;;;21.73;13.50;;;9.60;99.90;;;;;;4161825;28;20045;-60
2024/02/25 07:28:14;;;;;;;17.37;11.70;;;9.80;99.90;;;;;;4162422;28;20386;-60
2024/02/25 07:30:16;;;;;;;17.70;12.30;;;9.80;99.90;;;;;;4161459;28;20025;-55
2024/02/25 07:32:17;;;;;;;17.00;11.87;;;9.80;99.90;;;;;;4163040;28;20029;-56
2024/02/25 07:34:18;;;;;;;20.33;12.80;;;9.80;99.90;;;;;;4160206;28;20111;-58
2024/02/25 07:36:19;;;;;;;29.53;19.90;;;9.80;99.90;;;;;;4162861;28;20038;-54
2024/02/25 07:38:21;;;;;;;24.53;15.33;;;9.80;99.90;;;;;;4162040;28;20532;-59
2024/02/25 07:40:22;;;;;;;18.40;13.10;;;9.90;99.90;;;;;;4162319;28;20535;-59
2024/02/25 07:42:23;;;;;;;19.63;13.03;;;9.90;99.90;;;;;;4162049;28;20033;-57
2024/02/25 07:44:25;;;;;;;18.87;12.87;;;10.00;99.90;;;;;;4160654;28;20516;-61
2024/02/25 07:46:27;;;;;;;19.30;13.10;;;10.00;99.90;;;;;;4161616;28;20034;-57
2024/02/25 07:48:28;;;;;;;18.83;13.33;;;10.10;99.90;;;;;;4161603;28;20033;-58
2024/02/25 07:50:30;;;;;;;16.80;12.03;;;10.10;99.90;;;;;;4161338;28;20080;-58
2024/02/25 07:52:32;;;;;;;19.63;12.57;;;10.00;99.90;;;;;;4161453;28;20033;-54
2024/02/25 07:54:33;;;;;;;18.10;13.00;;;10.00;99.90;;;;;;4161866;28;20050;-60
2024/02/25 07:56:34;;;;;;;21.93;13.83;;;10.00;99.90;;;;;;4160667;28;20046;-57
2024/02/25 07:58:36;;;;;;;19.60;13.13;;;10.10;99.90;;;;;;4151996;28;20029;-62
2024/02/25 08:00:37;;;;;;;19.47;12.93;;;10.20;99.90;;;;;;4143995;28;20093;-61
2024/02/25 08:02:39;;;;;;;17.90;12.40;;;10.30;99.90;;;;;;4146516;28;20045;-61
2024/02/25 08:04:42;;;;;;;18.60;12.33;;;10.40;99.90;;;;;;4144745;28;20042;-63
2024/02/25 08:06:43;;;;;;;19.20;12.07;;;10.50;99.90;;;;;;4146292;28;20050;-62
2024/02/25 08:08:44;;;;;;;19.37;11.87;;;10.50;99.90;;;;;;4148062;28;20447;-58
2024/02/25 08:10:45;;;;;;;16.53;12.17;;;10.60;99.90;;;;;;4161261;28;20034;-58
2024/02/25 08:12:47;;;;;;;18.93;12.57;;;10.70;99.90;;;;;;4160834;28;20033;-52
2024/02/25 08:14:51;;;;;;;20.47;13.10;;;10.70;99.90;;;;;;4160388;28;20083;-61
2024/02/25 08:16:52;;;;;;;22.33;12.40;;;10.70;99.90;;;;;;4159123;28;20095;-62
2024/02/25 08:18:54;;;;;;;19.00;11.70;;;10.80;99.90;;;;;;4160426;28;20076;-60
2024/02/25 08:20:55;;;;;;;16.33;9.87;;;10.80;99.90;;;;;;4160541;28;20118;-71
2024/02/25 08:22:56;;;;;;;17.10;10.33;;;10.90;99.90;;;;;;4160705;28;20106;-59
2024/02/25 08:24:59;;;;;;;19.10;10.97;;;11.00;99.90;;;;;;4162521;28;20444;-62
2024/02/25 08:27:00;;;;;;;15.50;10.00;;;11.00;99.90;;;;;;4160194;28;20103;-65
2024/02/25 08:29:01;;;;;;;15.73;9.33;;;11.00;99.90;;;;;;4161164;28;20068;-64
2024/02/25 08:31:03;;;;;;;15.07;9.33;;;11.10;99.90;;;;;;4160783;28;20037;-63
2024/02/25 08:33:04;;;;;;;14.00;8.80;;;11.10;99.90;;;;;;4161743;28;20559;-59
2024/02/25 08:35:07;;;;;;;13.47;8.13;;;11.10;99.90;;;;;;4160274;28;20076;-55
2024/02/25 08:37:08;;;;;;;14.70;8.33;;;11.20;99.90;;;;;;4161537;28;20674;-61
2024/02/25 08:39:09;;;;;;;10.87;7.70;;;11.30;99.90;;;;;;4159705;28;20099;-57
2024/02/25 08:41:11;;;;;;;16.60;8.17;;;11.30;99.90;;;;;;4161613;28;20041;-65
2024/02/25 08:43:12;;;;;;;11.93;7.87;;;11.30;99.90;;;;;;4160221;28;20033;-62
2024/02/25 08:45:13;;;;;;;13.43;8.37;;;11.30;99.90;;;;;;4160079;28;20096;-61
2024/02/25 08:47:14;;;;;;;12.50;7.83;;;11.40;99.90;;;;;;4161283;28;20033;-57
2024/02/25 08:49:16;;;;;;;9.80;7.57;;;11.40;99.90;;;;;;4161044;28;20037;-61
2024/02/25 08:51:17;;;;;;;12.03;7.47;;;11.30;99.90;;;;;;4161498;28;20703;-63
2024/02/25 08:53:19;;;;;;;12.40;7.27;;;11.40;99.90;;;;;;4160550;28;20033;-60
2024/02/25 08:55:20;;;;;;;10.00;7.47;;;11.40;99.90;;;;;;4160709;28;20059;-62
2024/02/25 08:57:21;;;;;;;11.50;7.33;;;11.40;99.90;;;;;;4159891;28;20087;-63
2024/02/25 08:59:23;;;;;;;14.40;8.33;;;11.40;99.90;;;;;;4160764;28;20033;-59
2024/02/25 09:01:24;;;;;;;9.60;7.10;;;11.40;99.90;;;;;;4159566;28;20033;-62
2024/02/25 09:03:25;;;;;;;13.97;8.60;;;11.40;99.90;;;;;;4161348;28;20037;-61
2024/02/25 09:05:27;;;;;;;10.93;7.93;;;11.50;99.90;;;;;;4159832;28;20038;-61
2024/02/25 09:07:29;;;;;;;17.30;8.13;;;11.60;99.90;;;;;;4161679;28;20466;-64
2024/02/25 09:09:31;;;;;;;13.07;8.37;;;11.70;99.90;;;;;;4160526;28;20054;-60
2024/02/25 09:11:32;;;;;;;13.50;8.17;;;11.80;99.90;;;;;;4161451;28;20087;-63
2024/02/25 09:13:34;;;;;;;11.77;7.70;;;11.90;99.90;;;;;;4159074;28;20038;-57
2024/02/25 09:15:35;;;;;;;9.30;7.00;;;12.00;99.90;;;;;;4161103;28;20033;-61
2024/02/25 09:17:36;;;;;;;14.27;7.33;;;12.10;99.90;;;;;;4160792;28;20498;-60
2024/02/25 09:19:39;;;;;;;11.73;7.27;;;12.20;99.90;;;;;;4160294;28;20550;-65
2024/02/25 09:21:40;;;;;;;11.23;7.50;;;12.30;99.90;;;;;;4160542;28;20393;-59
2024/02/25 09:23:42;;;;;;;11.10;6.27;;;12.30;99.90;;;;;;4159870;28;20091;-62
2024/02/25 09:25:44;;;;;;;8.70;6.30;;;12.40;99.90;;;;;;4160565;28;20057;-60
2024/02/25 09:27:45;;;;;;;9.87;6.00;;;12.50;99.90;;;;;;4160431;28;20417;-63
2024/02/25 09:29:46;;;;;;;14.87;7.80;;;12.60;99.90;;;;;;4160292;28;20380;-62
2024/02/25 09:31:47;;;;;;;9.03;5.77;;;12.70;99.90;;;;;;4159526;28;20038;-64
2024/02/25 09:33:54;;;;;;;8.03;5.80;;;12.80;99.90;;;;;;4161501;28;20048;-66
2024/02/25 09:35:56;;;;;;;9.93;6.27;;;12.90;99.90;;;;;;4159552;28;20041;-64
2024/02/25 09:37:57;;;;;;;10.33;5.37;;;13.00;99.90;;;;;;4161639;28;20029;-62
2024/02/25 09:39:59;;;;;;;9.60;6.03;;;13.10;99.90;;;;;;4160988;28;20030;-59
2024/02/25 09:42:05;;;;;;;6.17;5.23;;;13.10;99.90;;;;;;4163735;28;20482;-65
2024/02/25 09:44:16;;;;;;;9.93;6.13;;;13.00;99.90;;;;;;4162287;28;20042;-61
2024/02/25 09:46:19;;;;;;;7.87;5.83;;;13.10;99.90;;;;;;4163795;28;20684;-61
2024/02/25 09:48:20;;;;;;;12.10;6.30;;;13.20;99.90;;;;;;4163070;28;20037;-60
2024/02/25 09:50:22;;;;;;;6.70;5.10;;;13.20;99.90;;;;;;4164751;28;20030;-60
2024/02/25 09:52:25;;;;;;;12.13;5.50;;;13.20;99.90;;;;;;4163725;28;20474;-61
2024/02/25 09:54:26;;;;;;;16.20;5.87;;;13.20;99.90;;;;;;4163300;28;20057;-60
2024/02/25 09:56:28;;;;;;;11.10;5.93;;;13.40;99.90;;;;;;4163343;28;20083;-65
2024/02/25 09:58:29;;;;;;;8.43;5.10;;;13.30;99.90;;;;;;4162727;28;20049;-59
2024/02/25 10:00:31;;;;;;;10.80;5.47;;;13.40;99.90;;;;;;4164164;28;20033;-63
2024/02/25 10:02:32;;;;;;;8.53;4.90;;;13.40;99.90;;;;;;4162551;28;20091;-62
2024/02/25 10:04:33;;;;;;;9.13;5.40;;;13.40;99.90;;;;;;4163518;28;20087;-64
2024/02/25 10:06:37;;;;;;;10.07;5.97;;;13.40;99.90;;;;;;4163124;28;20045;-60
2024/02/25 10:08:51;;;;;;;8.93;5.50;;;13.50;99.90;;;;;;4163540;28;20516;-60
2024/02/25 10:10:52;;;;;;;9.63;5.17;;;13.50;99.90;;;;;;4162515;28;20041;-60
2024/02/25 10:12:53;;;;;;;10.10;5.50;;;13.60;99.90;;;;;;4163956;28;20037;-61
2024/02/25 10:14:55;;;;;;;11.67;6.03;;;13.70;99.90;;;;;;4161372;28;20108;-58
2024/02/25 10:17:03;;;;;;;9.23;5.57;;;13.70;99.90;;;;;;4164148;28;20124;-63
2024/02/25 10:19:05;;;;;;;9.67;4.97;;;13.70;99.90;;;;;;4162279;28;20103;-60
2024/02/25 10:21:07;;;;;;;9.53;5.47;;;13.80;99.90;;;;;;4164370;28;20041;-59
2024/02/25 10:23:10;;;;;;;8.53;3.87;;;13.90;99.90;;;;;;4162474;28;20466;-58
2024/02/25 10:25:11;;;;;;;5.03;3.70;;;14.00;99.90;;;;;;4163613;28;20037;-62
2024/02/25 10:27:14;;;;;;;4.97;4.00;;;14.00;99.90;;;;;;4162803;28;20025;-64